createdAt,value
2023-05-07T00:02:25.542Z,11.98
2023-05-07T00:04:53.765Z,11.84
2023-05-07T00:07:21.748Z,11.69
2023-05-07T00:09:49.618Z,11.59
2023-05-07T00:12:17.489Z,11.49
2023-05-07T00:14:45.364Z,11.38
2023-05-07T00:17:13.427Z,11.28
2023-05-07T00:19:41.382Z,11.24
2023-05-07T00:22:09.456Z,11.21
2023-05-07T00:24:37.426Z,11.14
2023-05-07T00:27:05.518Z,11.07
2023-05-07T00:29:33.259Z,11.02
2023-05-07T00:32:01.261Z,10.95
2023-05-07T00:34:29.217Z,10.84
2023-05-07T00:36:57.167Z,10.68
2023-05-07T00:39:24.915Z,10.57
2023-05-07T00:41:52.895Z,10.48
2023-05-07T00:44:20.820Z,10.43
2023-05-07T00:46:51.080Z,10.38
2023-05-07T00:49:19.513Z,10.34
2023-05-07T00:51:48.167Z,10.30
2023-05-07T00:54:16.015Z,10.30
2023-05-07T00:56:44.005Z,10.33
2023-05-07T00:59:12.264Z,10.35
2023-05-07T01:01:40.292Z,10.36
2023-05-07T01:04:08.459Z,10.36
2023-05-07T01:06:37.296Z,10.36
2023-05-07T01:09:06.044Z,10.37
2023-05-07T01:11:34.365Z,10.38
2023-05-07T01:14:02.632Z,10.38
2023-05-07T01:16:30.699Z,10.40
2023-05-07T01:18:58.589Z,10.46
2023-05-07T01:21:27.732Z,10.46
2023-05-07T01:23:58.921Z,10.43
2023-05-07T01:26:27.192Z,10.35
2023-05-07T01:28:55.157Z,10.32
2023-05-07T01:31:25.018Z,10.30
2023-05-07T01:33:53.911Z,10.30
2023-05-07T01:36:24.051Z,10.33
2023-05-07T01:38:52.995Z,10.33
2023-05-07T01:41:20.839Z,10.14
2023-05-07T01:43:49.638Z,9.90
2023-05-07T01:46:18.744Z,9.77
2023-05-07T01:48:47.209Z,9.74
2023-05-07T01:51:15.056Z,9.76
2023-05-07T01:53:44.622Z,9.82
2023-05-07T01:56:12.617Z,9.89
2023-05-07T01:58:41.107Z,9.93
2023-05-07T02:01:09.476Z,9.96
2023-05-07T02:03:37.962Z,10.01
2023-05-07T02:06:09.269Z,10.07
2023-05-07T02:08:40.264Z,10.13
2023-05-07T02:11:08.019Z,10.15
2023-05-07T02:13:37.423Z,10.14
2023-05-07T02:16:05.652Z,10.10
2023-05-07T02:18:33.562Z,10.11
2023-05-07T02:21:01.757Z,10.15
2023-05-07T02:23:29.708Z,10.20
2023-05-07T02:25:57.680Z,10.25
2023-05-07T02:28:25.955Z,10.31
2023-05-07T02:31:04.482Z,10.37
2023-05-07T02:33:32.948Z,10.45
2023-05-07T02:36:11.169Z,10.50
2023-05-07T02:38:47.314Z,10.55
2023-05-07T02:41:15.132Z,10.58
2023-05-07T02:43:42.988Z,10.59
2023-05-07T02:46:11.990Z,10.55
2023-05-07T02:48:42.900Z,10.56
2023-05-07T02:51:11.042Z,10.59
2023-05-07T02:53:40.152Z,10.62
2023-05-07T02:56:08.207Z,10.70
2023-05-07T02:58:36.218Z,10.77
2023-05-07T03:01:04.876Z,10.82
2023-05-07T03:03:40.059Z,10.88
2023-05-07T03:06:08.066Z,10.93
2023-05-07T03:08:36.147Z,11.01
2023-05-07T03:11:04.558Z,11.11
2023-05-07T03:13:32.496Z,11.20
2023-05-07T03:16:01.292Z,11.29
2023-05-07T03:18:29.312Z,11.36
2023-05-07T03:20:57.524Z,11.38
2023-05-07T03:23:25.795Z,11.42
2023-05-07T03:25:53.578Z,11.46
2023-05-07T03:28:21.542Z,11.43
2023-05-07T03:30:53.715Z,11.40
2023-05-07T03:33:21.764Z,11.38
2023-05-07T03:35:49.854Z,11.42
2023-05-07T03:38:21.503Z,11.54
2023-05-07T03:40:49.449Z,11.59
2023-05-07T03:43:17.505Z,11.58
2023-05-07T03:45:48.992Z,11.61
2023-05-07T03:48:25.941Z,11.64
2023-05-07T03:50:54.945Z,11.67
2023-05-07T03:53:22.695Z,11.75
2023-05-07T03:55:50.990Z,11.82
2023-05-07T03:58:20.289Z,11.91
2023-05-07T04:00:50.198Z,12.05
2023-05-07T04:03:24.586Z,12.09
2023-05-07T04:05:52.903Z,12.15
2023-05-07T04:08:20.762Z,12.18
2023-05-07T04:10:55.318Z,12.21
2023-05-07T04:13:23.682Z,12.20
2023-05-07T04:15:52.962Z,12.18
2023-05-07T04:18:21.235Z,12.17
2023-05-07T04:20:50.630Z,12.14
2023-05-07T04:23:18.705Z,12.15
2023-05-07T04:25:46.777Z,12.22
2023-05-07T04:28:35.752Z,12.31
2023-05-07T04:31:03.700Z,12.41
2023-05-07T04:33:32.182Z,12.55
2023-05-07T04:36:03.917Z,12.64
2023-05-07T04:38:33.042Z,12.68
2023-05-07T04:41:06.299Z,12.74
2023-05-07T04:43:36.343Z,12.79
2023-05-07T04:46:04.152Z,12.85
2023-05-07T04:48:32.451Z,12.88
2023-05-07T04:51:01.147Z,12.93
2023-05-07T04:53:29.658Z,12.92
2023-05-07T04:55:58.208Z,12.92
2023-05-07T04:58:28.567Z,12.93
2023-05-07T05:00:57.562Z,12.96
2023-05-07T05:03:25.707Z,13.01
2023-05-07T05:05:54.238Z,13.08
2023-05-07T05:08:22.370Z,13.13
2023-05-07T05:10:51.172Z,13.17
2023-05-07T05:13:19.611Z,13.23
2023-05-07T05:15:47.717Z,13.28
2023-05-07T05:18:15.786Z,13.33
2023-05-07T05:20:43.554Z,13.42
2023-05-07T05:23:12.907Z,13.50
2023-05-07T05:25:41.314Z,13.57
2023-05-07T05:28:11.485Z,13.66
2023-05-07T05:30:40.032Z,13.75
2023-05-07T05:33:08.106Z,13.80
2023-05-07T05:35:36.674Z,13.90
2023-05-07T05:38:05.986Z,13.93
2023-05-07T05:40:34.803Z,13.86
2023-05-07T05:43:03.045Z,13.87
2023-05-07T05:45:31.304Z,13.88
2023-05-07T05:47:59.126Z,13.89
2023-05-07T05:50:27.448Z,13.93
2023-05-07T05:52:56.168Z,13.89
2023-05-07T05:55:24.734Z,13.84
2023-05-07T05:57:52.801Z,13.85
2023-05-07T06:00:23.651Z,13.87
2023-05-07T06:02:57.836Z,13.90
2023-05-07T06:05:26.412Z,13.92
2023-05-07T06:07:55.628Z,13.92
2023-05-07T06:10:23.704Z,13.91
2023-05-07T06:12:51.705Z,13.90
2023-05-07T06:15:19.641Z,13.95
2023-05-07T06:17:47.694Z,13.98
2023-05-07T06:20:16.298Z,14.01
2023-05-07T06:22:44.283Z,14.07
2023-05-07T06:25:12.553Z,14.14
2023-05-07T06:27:40.934Z,14.21
2023-05-07T06:30:09.925Z,14.26
2023-05-07T06:32:38.236Z,14.29
2023-05-07T06:35:06.974Z,14.32
2023-05-07T06:37:36.482Z,14.38
2023-05-07T06:40:07.326Z,14.41
2023-05-07T06:42:37.335Z,14.40
2023-05-07T06:45:21.066Z,14.52
2023-05-07T06:47:49.134Z,14.71
2023-05-07T06:50:18.228Z,14.67
2023-05-07T06:52:46.328Z,14.62
2023-05-07T06:55:14.160Z,14.58
2023-05-07T06:57:42.132Z,14.53
2023-05-07T07:00:11.290Z,14.47
2023-05-07T07:02:47.144Z,14.47
2023-05-07T07:05:16.001Z,14.54
2023-05-07T07:07:44.042Z,14.63
2023-05-07T07:10:12.306Z,14.79
2023-05-07T07:12:40.663Z,14.92
2023-05-07T07:15:08.867Z,14.92
2023-05-07T07:17:37.107Z,14.95
2023-05-07T07:20:05.524Z,14.95
2023-05-07T07:22:33.383Z,14.90
2023-05-07T07:25:01.988Z,14.87
2023-05-07T07:27:31.260Z,14.87
2023-05-07T07:29:59.340Z,14.91
2023-05-07T07:32:27.241Z,14.87
2023-05-07T07:34:55.793Z,14.70
2023-05-07T07:37:23.867Z,14.64
2023-05-07T07:39:52.441Z,14.62
2023-05-07T07:42:21.233Z,14.53
2023-05-07T07:44:49.811Z,14.39
2023-05-07T07:47:18.362Z,14.28
2023-05-07T07:49:47.902Z,14.23
2023-05-07T07:52:16.064Z,14.26
2023-05-07T07:54:44.169Z,14.26
2023-05-07T07:57:12.079Z,14.22
2023-05-07T07:59:40.788Z,14.21
2023-05-07T08:02:09.449Z,14.23
2023-05-07T08:04:38.743Z,14.25
2023-05-07T08:07:06.930Z,14.29
2023-05-07T08:09:36.772Z,14.29
2023-05-07T08:12:06.755Z,14.34
2023-05-07T08:14:35.880Z,14.46
2023-05-07T08:17:04.249Z,14.51
2023-05-07T08:19:32.653Z,14.53
2023-05-07T08:22:01.627Z,14.55
2023-05-07T08:24:30.416Z,14.45
2023-05-07T08:26:58.794Z,14.37
2023-05-07T08:29:26.958Z,14.40
2023-05-07T08:32:20.741Z,14.41
2023-05-07T08:34:49.291Z,14.42
2023-05-07T08:37:17.063Z,14.48
2023-05-07T08:39:46.355Z,14.56
2023-05-07T08:42:19.275Z,14.63
2023-05-07T08:44:48.557Z,14.69
2023-05-07T08:47:17.658Z,14.75
2023-05-07T08:49:46.441Z,14.81
2023-05-07T08:52:15.240Z,14.80
2023-05-07T08:54:44.341Z,14.85
2023-05-07T08:57:12.904Z,14.92
2023-05-07T08:59:41.246Z,14.96
2023-05-07T09:02:10.292Z,14.99
2023-05-07T09:04:38.859Z,15.01
2023-05-07T09:07:07.372Z,15.00
2023-05-07T09:09:38.485Z,14.97
2023-05-07T09:12:07.274Z,14.99
2023-05-07T09:14:35.967Z,15.04
2023-05-07T09:17:04.226Z,15.07
2023-05-07T09:19:32.496Z,15.10
2023-05-07T09:22:03.742Z,15.06
2023-05-07T09:24:39.006Z,15.11
2023-05-07T09:27:09.962Z,15.16
2023-05-07T09:29:38.051Z,15.22
2023-05-07T09:32:06.772Z,15.33
2023-05-07T09:34:35.359Z,15.41
2023-05-07T09:37:04.254Z,15.50
2023-05-07T09:39:45.656Z,15.51
2023-05-07T09:42:16.007Z,15.65
2023-05-07T09:44:45.569Z,15.79
2023-05-07T09:47:20.008Z,15.91
2023-05-07T09:49:49.587Z,15.93
2023-05-07T09:52:20.847Z,16.00
2023-05-07T09:54:51.486Z,16.10
2023-05-07T09:57:21.654Z,16.18
2023-05-07T09:59:53.545Z,16.27
2023-05-07T10:02:21.904Z,16.41
2023-05-07T10:04:54.001Z,16.56
2023-05-07T10:07:26.470Z,16.65
2023-05-07T10:09:57.604Z,16.72
2023-05-07T10:12:40.143Z,16.82
2023-05-07T10:15:13.048Z,16.93
2023-05-07T10:17:42.273Z,17.04
2023-05-07T10:20:11.190Z,17.11
2023-05-07T10:22:44.095Z,17.08
2023-05-07T10:25:31.775Z,17.10
2023-05-07T10:28:07.462Z,17.22
2023-05-07T10:30:45.018Z,17.30
2023-05-07T10:33:14.818Z,17.35
2023-05-07T10:35:45.153Z,17.35
2023-05-07T10:38:13.982Z,17.40
2023-05-07T10:40:42.882Z,17.45
2023-05-07T10:43:11.659Z,17.56
2023-05-07T10:45:43.198Z,17.76
2023-05-07T10:48:28.114Z,18.00
2023-05-07T10:51:21.338Z,18.25
2023-05-07T10:53:50.113Z,18.38
2023-05-07T10:56:22.008Z,18.86
2023-05-07T10:58:55.083Z,19.58
2023-05-07T11:01:48.785Z,20.19
2023-05-07T11:04:18.587Z,20.47
2023-05-07T11:07:08.117Z,20.65
2023-05-07T11:09:52.479Z,20.94
2023-05-07T11:12:37.912Z,21.09
2023-05-07T11:15:12.972Z,21.26
2023-05-07T11:17:55.174Z,21.30
2023-05-07T11:20:44.652Z,21.49
2023-05-07T11:23:36.016Z,21.89
2023-05-07T11:26:27.344Z,22.33
2023-05-07T11:28:55.733Z,22.56
2023-05-07T11:31:29.428Z,22.77
2023-05-07T11:33:58.326Z,22.94
2023-05-07T11:36:28.168Z,23.22
2023-05-07T11:38:57.137Z,23.35
2023-05-07T11:41:37.211Z,23.05
2023-05-07T11:44:13.746Z,22.95
2023-05-07T11:46:44.079Z,22.75
2023-05-07T11:49:11.994Z,22.67
2023-05-07T11:51:40.015Z,22.87
2023-05-07T11:54:09.846Z,22.94
2023-05-07T11:56:38.506Z,22.72
2023-05-07T11:59:06.951Z,22.61
2023-05-07T12:01:36.601Z,22.66
2023-05-07T12:04:06.435Z,22.73
2023-05-07T12:06:37.535Z,23.07
2023-05-07T12:09:06.131Z,23.08
2023-05-07T12:11:34.023Z,22.52
2023-05-07T12:14:02.302Z,22.09
2023-05-07T12:16:30.912Z,22.13
2023-05-07T12:19:00.042Z,22.29
2023-05-07T12:21:27.913Z,22.29
2023-05-07T12:23:55.783Z,22.18
2023-05-07T12:26:23.868Z,22.36
2023-05-07T12:28:52.129Z,22.36
2023-05-07T12:31:20.156Z,22.13
2023-05-07T12:33:48.162Z,21.82
2023-05-07T12:36:16.236Z,21.66
2023-05-07T12:38:44.231Z,21.52
2023-05-07T12:41:13.710Z,21.46
2023-05-07T12:43:44.641Z,21.30
2023-05-07T12:46:14.772Z,21.25
2023-05-07T12:48:47.329Z,21.29
2023-05-07T12:51:16.437Z,21.50
2023-05-07T12:53:44.607Z,21.75
2023-05-07T12:56:12.453Z,21.85
2023-05-07T12:58:40.849Z,21.84
2023-05-07T13:01:10.965Z,21.90
2023-05-07T13:03:39.709Z,22.02
2023-05-07T13:06:11.363Z,21.95
2023-05-07T13:08:41.995Z,21.70
2023-05-07T13:11:11.402Z,21.61
2023-05-07T13:13:41.154Z,21.49
2023-05-07T13:16:10.470Z,21.48
2023-05-07T13:18:39.359Z,21.59
2023-05-07T13:21:07.320Z,21.67
2023-05-07T13:23:35.694Z,21.51
2023-05-07T13:26:08.617Z,21.25
2023-05-07T13:28:43.118Z,21.12
2023-05-07T13:31:11.207Z,21.05
2023-05-07T13:33:39.335Z,21.03
2023-05-07T13:36:07.481Z,20.98
2023-05-07T13:38:35.601Z,20.79
2023-05-07T13:41:03.436Z,20.53
2023-05-07T13:43:31.318Z,20.46
2023-05-07T13:45:59.325Z,20.45
2023-05-07T13:48:27.353Z,20.44
2023-05-07T13:50:55.381Z,20.34
2023-05-07T13:53:23.288Z,20.32
2023-05-07T13:55:51.161Z,20.52
2023-05-07T13:58:19.091Z,20.74
2023-05-07T14:00:47.109Z,20.88
2023-05-07T14:03:14.983Z,20.93
2023-05-07T14:05:43.156Z,20.92
2023-05-07T14:08:12.115Z,20.75
2023-05-07T14:10:39.907Z,20.57
2023-05-07T14:13:07.863Z,20.41
2023-05-07T14:15:36.017Z,20.35
2023-05-07T14:18:03.953Z,20.39
2023-05-07T14:20:32.280Z,20.36
2023-05-07T14:23:00.229Z,20.28
2023-05-07T14:25:28.039Z,20.20
2023-05-07T14:27:55.961Z,20.10
2023-05-07T14:30:25.625Z,20.12
2023-05-07T14:32:53.717Z,20.14
2023-05-07T14:35:21.812Z,20.15
2023-05-07T14:37:49.784Z,20.00
2023-05-07T14:40:17.677Z,19.85
2023-05-07T14:42:45.927Z,19.80
2023-05-07T14:45:14.093Z,19.88
2023-05-07T14:47:42.143Z,20.04
2023-05-07T14:50:10.347Z,20.17
2023-05-07T14:52:38.133Z,20.29
2023-05-07T14:55:07.113Z,20.35
2023-05-07T14:57:36.306Z,20.35
2023-05-07T15:00:08.166Z,20.24
2023-05-07T15:02:36.357Z,20.03
2023-05-07T15:05:04.810Z,19.78
2023-05-07T15:07:33.986Z,19.58
2023-05-07T15:10:01.793Z,19.42
2023-05-07T15:12:29.840Z,19.31
2023-05-07T15:14:57.816Z,19.20
2023-05-07T15:17:25.811Z,19.07
2023-05-07T15:19:54.462Z,18.97
2023-05-07T15:22:22.846Z,18.87
2023-05-07T15:24:51.325Z,18.78
2023-05-07T15:27:19.191Z,18.75
2023-05-07T15:29:47.070Z,18.69
2023-05-07T15:32:15.069Z,18.63
2023-05-07T15:34:43.200Z,18.57
2023-05-07T15:37:12.228Z,18.53
2023-05-07T15:39:40.666Z,18.49
2023-05-07T15:42:08.643Z,18.50
2023-05-07T15:44:36.918Z,18.50
2023-05-07T15:47:04.663Z,18.48
2023-05-07T15:49:33.357Z,18.44
2023-05-07T15:52:02.449Z,18.34
2023-05-07T15:54:30.594Z,18.22
2023-05-07T15:56:58.420Z,18.12
2023-05-07T15:59:26.279Z,18.04
2023-05-07T16:01:54.120Z,17.93
2023-05-07T16:04:22.502Z,17.81
2023-05-07T16:06:50.476Z,17.73
2023-05-07T16:09:18.430Z,17.68
2023-05-07T16:11:46.529Z,17.62
2023-05-07T16:14:14.431Z,17.60
2023-05-07T16:16:42.511Z,17.58
2023-05-07T16:19:10.635Z,17.49
2023-05-07T16:21:38.456Z,16.98
2023-05-07T16:24:07.065Z,16.08
2023-05-07T16:26:34.943Z,15.30
2023-05-07T16:29:04.127Z,14.71
2023-05-07T16:31:32.102Z,14.30
2023-05-07T16:34:00.782Z,14.02
2023-05-07T16:36:31.619Z,13.82
2023-05-07T16:38:59.710Z,13.63
2023-05-07T16:41:27.553Z,13.44
2023-05-07T16:43:57.916Z,13.24
2023-05-07T16:46:25.755Z,13.17
2023-05-07T16:48:53.675Z,13.20
2023-05-07T16:51:22.917Z,13.20
2023-05-07T16:53:51.517Z,13.17
2023-05-07T16:56:19.866Z,13.07
2023-05-07T16:58:47.829Z,13.01
2023-05-07T17:01:17.069Z,12.98
2023-05-07T17:03:45.405Z,12.95
2023-05-07T17:06:15.309Z,12.96
2023-05-07T17:08:43.470Z,12.98
2023-05-07T17:11:12.599Z,13.00
2023-05-07T17:13:41.171Z,12.99
2023-05-07T17:16:09.312Z,12.98
2023-05-07T17:18:37.388Z,12.99
2023-05-07T17:21:05.174Z,12.97
2023-05-07T17:23:33.155Z,12.91
2023-05-07T17:26:01.102Z,12.84
2023-05-07T17:28:29.603Z,12.85
2023-05-07T17:30:57.473Z,12.92
2023-05-07T17:33:25.283Z,12.95
2023-05-07T17:35:53.137Z,12.97
2023-05-07T17:38:20.984Z,13.01
2023-05-07T17:40:48.928Z,12.95
2023-05-07T17:43:16.762Z,12.88
2023-05-07T17:45:44.657Z,12.89
2023-05-07T17:48:12.578Z,12.94
2023-05-07T17:50:40.999Z,12.96
2023-05-07T17:53:09.907Z,13.00
2023-05-07T17:55:45.053Z,13.02
2023-05-07T17:58:13.979Z,12.98
2023-05-07T18:00:41.906Z,12.94
2023-05-07T18:03:10.034Z,12.98
2023-05-07T18:05:38.271Z,13.04
2023-05-07T18:08:09.324Z,13.06
2023-05-07T18:10:37.442Z,13.02
2023-05-07T18:13:05.498Z,12.94
2023-05-07T18:15:33.509Z,12.92
2023-05-07T18:18:01.659Z,12.96
2023-05-07T18:20:29.828Z,12.99
2023-05-07T18:22:58.980Z,12.98
2023-05-07T18:25:27.072Z,12.96
2023-05-07T18:27:54.977Z,12.92
2023-05-07T18:30:23.083Z,12.85
2023-05-07T18:32:51.420Z,12.81
2023-05-07T18:35:19.259Z,12.81
2023-05-07T18:37:47.237Z,12.84
2023-05-07T18:40:15.347Z,12.84
2023-05-07T18:42:43.421Z,12.79
2023-05-07T18:45:11.663Z,12.74
2023-05-07T18:47:39.667Z,12.70
2023-05-07T18:50:08.531Z,12.73
2023-05-07T18:52:36.849Z,12.77
2023-05-07T18:55:04.972Z,12.76
2023-05-07T18:57:33.672Z,12.74
2023-05-07T19:00:01.595Z,12.73
2023-05-07T19:02:29.407Z,12.75
2023-05-07T19:04:57.422Z,12.79
2023-05-07T19:07:25.529Z,12.82
2023-05-07T19:10:04.264Z,12.88
2023-05-07T19:12:33.458Z,12.88
2023-05-07T19:15:01.422Z,12.85
2023-05-07T19:17:29.313Z,12.89
2023-05-07T19:19:57.066Z,12.91
2023-05-07T19:22:25.223Z,12.91
2023-05-07T19:24:53.592Z,12.91
2023-05-07T19:27:21.568Z,12.87
2023-05-07T19:29:49.525Z,12.84
2023-05-07T19:32:17.669Z,12.79
2023-05-07T19:34:45.463Z,12.81
2023-05-07T19:37:13.210Z,12.87
2023-05-07T19:39:41.093Z,12.92
2023-05-07T19:42:09.169Z,12.93
2023-05-07T19:44:36.997Z,12.86
2023-05-07T19:47:05.884Z,12.81
2023-05-07T19:49:33.713Z,12.74
2023-05-07T19:52:01.905Z,12.72
2023-05-07T19:54:29.890Z,12.71
2023-05-07T19:56:57.891Z,12.68
2023-05-07T19:59:27.394Z,12.60
2023-05-07T20:01:55.713Z,12.51
2023-05-07T20:04:29.055Z,12.46
2023-05-07T20:06:57.551Z,12.50
2023-05-07T20:09:25.522Z,12.53
2023-05-07T20:11:53.616Z,12.55
2023-05-07T20:14:21.540Z,12.57
2023-05-07T20:16:49.567Z,12.64
2023-05-07T20:19:18.770Z,12.68
2023-05-07T20:21:46.694Z,12.73
2023-05-07T20:24:14.683Z,12.76
2023-05-07T20:26:42.451Z,12.74
2023-05-07T20:29:10.397Z,12.71
2023-05-07T20:31:38.512Z,12.69
2023-05-07T20:34:07.459Z,12.78
2023-05-07T20:36:36.125Z,12.79
2023-05-07T20:39:04.538Z,12.77
2023-05-07T20:41:32.383Z,12.74
2023-05-07T20:44:00.656Z,12.73
2023-05-07T20:46:29.848Z,12.80
2023-05-07T20:48:58.116Z,12.84
2023-05-07T20:51:27.233Z,12.83
2023-05-07T20:53:55.092Z,12.77
2023-05-07T20:56:23.171Z,12.72
2023-05-07T20:58:51.039Z,12.77
2023-05-07T21:01:18.983Z,12.82
2023-05-07T21:03:47.142Z,12.76
2023-05-07T21:06:14.936Z,12.65
2023-05-07T21:08:42.708Z,12.63
2023-05-07T21:11:10.477Z,12.68
2023-05-07T21:13:38.439Z,12.69
2023-05-07T21:16:06.414Z,12.66
2023-05-07T21:18:34.269Z,12.63
2023-05-07T21:21:02.232Z,12.60
2023-05-07T21:23:29.990Z,12.62
2023-05-07T21:25:57.751Z,12.64
2023-05-07T21:28:25.613Z,12.62
2023-05-07T21:30:53.482Z,12.63
2023-05-07T21:33:21.459Z,12.66
2023-05-07T21:35:49.519Z,12.67
2023-05-07T21:38:18.929Z,12.69
2023-05-07T21:40:46.732Z,12.72
2023-05-07T21:43:14.664Z,12.70
2023-05-07T21:45:42.527Z,12.63
2023-05-07T21:48:10.680Z,12.60
2023-05-07T21:50:38.655Z,12.52
2023-05-07T21:53:06.599Z,12.46
2023-05-07T21:55:34.424Z,12.49
2023-05-07T21:58:06.033Z,12.54
2023-05-07T22:00:34.347Z,12.55
2023-05-07T22:03:02.689Z,12.49
2023-05-07T22:05:30.575Z,12.45
2023-05-07T22:07:58.438Z,12.48
2023-05-07T22:10:26.732Z,12.47
2023-05-07T22:12:54.847Z,12.45
2023-05-07T22:15:22.970Z,12.36
2023-05-07T22:17:50.815Z,12.30
2023-05-07T22:20:18.791Z,12.31
2023-05-07T22:22:52.423Z,12.39
2023-05-07T22:25:21.199Z,12.47
2023-05-07T22:27:49.766Z,12.43
2023-05-07T22:30:17.953Z,12.39
2023-05-07T22:32:45.872Z,12.35
2023-05-07T22:35:14.080Z,12.33
2023-05-07T22:37:42.055Z,12.30
2023-05-07T22:40:10.590Z,12.28
2023-05-07T22:42:38.766Z,12.27
2023-05-07T22:45:06.969Z,12.30
2023-05-07T22:47:34.984Z,12.31
2023-05-07T22:50:05.360Z,12.25
2023-05-07T22:52:33.943Z,12.19
2023-05-07T22:55:01.813Z,12.15
2023-05-07T22:57:29.688Z,12.21
2023-05-07T22:59:57.955Z,12.28
2023-05-07T23:02:29.052Z,12.25
2023-05-07T23:04:59.470Z,12.19
2023-05-07T23:07:27.799Z,12.21
2023-05-07T23:09:55.555Z,12.22
2023-05-07T23:12:23.575Z,12.20
2023-05-07T23:14:51.496Z,12.21
2023-05-07T23:17:19.373Z,12.17
2023-05-07T23:19:47.344Z,12.14
2023-05-07T23:22:16.232Z,12.13
2023-05-07T23:24:44.610Z,12.09
2023-05-07T23:27:12.471Z,11.99
2023-05-07T23:29:40.744Z,12.00
2023-05-07T23:32:08.609Z,12.01
2023-05-07T23:34:36.683Z,11.94
2023-05-07T23:37:04.555Z,11.86
2023-05-07T23:39:32.308Z,11.87
2023-05-07T23:42:00.175Z,11.95
2023-05-07T23:44:28.166Z,11.98
2023-05-07T23:46:56.006Z,11.97
2023-05-07T23:49:23.874Z,11.97
2023-05-07T23:51:51.973Z,11.98
2023-05-07T23:54:19.953Z,11.97
2023-05-07T23:56:47.789Z,11.94
2023-05-07T23:59:15.662Z,11.89
